sensor_id;sensor_type;location;lat;lon;timestamp;P1;durP1;ratioP1;P2;durP2;ratioP2
18867;SDS011;9563;49.240;9.088;2023-02-08T00:01:23;20.23;;;9.70;;
18867;SDS011;9563;49.240;9.088;2023-02-08T00:03:51;20.50;;;10.77;;
18867;SDS011;9563;49.240;9.088;2023-02-08T00:06:19;18.73;;;9.83;;
18867;SDS011;9563;49.240;9.088;2023-02-08T00:08:46;21.63;;;11.53;;
18867;SDS011;9563;49.240;9.088;2023-02-08T00:11:13;26.83;;;13.00;;
18867;SDS011;9563;49.240;9.088;2023-02-08T00:13:40;26.37;;;13.03;;
18867;SDS011;9563;49.240;9.088;2023-02-08T00:16:07;24.67;;;12.00;;
18867;SDS011;9563;49.240;9.088;2023-02-08T00:18:34;27.33;;;11.97;;
18867;SDS011;9563;49.240;9.088;2023-02-08T00:21:05;24.37;;;11.03;;
18867;SDS011;9563;49.240;9.088;2023-02-08T00:23:34;18.30;;;9.67;;
18867;SDS011;9563;49.240;9.088;2023-02-08T00:26:01;22.50;;;10.10;;
18867;SDS011;9563;49.240;9.088;2023-02-08T00:28:28;22.03;;;9.93;;
18867;SDS011;9563;49.240;9.088;2023-02-08T00:31:04;22.43;;;9.83;;
18867;SDS011;9563;49.240;9.088;2023-02-08T00:33:31;19.73;;;10.20;;
18867;SDS011;9563;49.240;9.088;2023-02-08T00:35:58;20.43;;;9.50;;
18867;SDS011;9563;49.240;9.088;2023-02-08T00:38:25;19.93;;;9.60;;
18867;SDS011;9563;49.240;9.088;2023-02-08T00:40:54;21.87;;;9.17;;
18867;SDS011;9563;49.240;9.088;2023-02-08T00:43:21;20.50;;;9.00;;
18867;SDS011;9563;49.240;9.088;2023-02-08T00:45:52;19.13;;;9.10;;
18867;SDS011;9563;49.240;9.088;2023-02-08T00:48:19;17.67;;;8.40;;
18867;SDS011;9563;49.240;9.088;2023-02-08T00:50:55;18.73;;;8.33;;
18867;SDS011;9563;49.240;9.088;2023-02-08T00:53:22;20.37;;;8.43;;
18867;SDS011;9563;49.240;9.088;2023-02-08T00:55:50;16.00;;;7.37;;
18867;SDS011;9563;49.240;9.088;2023-02-08T00:58:18;17.97;;;8.00;;
18867;SDS011;9563;49.240;9.088;2023-02-08T01:00:45;17.30;;;8.57;;
18867;SDS011;9563;49.240;9.088;2023-02-08T01:03:12;15.67;;;7.23;;
18867;SDS011;9563;49.240;9.088;2023-02-08T01:05:39;15.50;;;7.23;;
18867;SDS011;9563;49.240;9.088;2023-02-08T01:08:06;18.10;;;8.33;;
18867;SDS011;9563;49.240;9.088;2023-02-08T01:10:33;16.93;;;7.97;;
18867;SDS011;9563;49.240;9.088;2023-02-08T01:13:00;18.10;;;7.80;;
18867;SDS011;9563;49.240;9.088;2023-02-08T01:15:29;17.90;;;8.27;;
18867;SDS011;9563;49.240;9.088;2023-02-08T01:17:56;17.00;;;7.57;;
18867;SDS011;9563;49.240;9.088;2023-02-08T01:20:23;16.10;;;8.50;;
18867;SDS011;9563;49.240;9.088;2023-02-08T01:22:50;15.97;;;7.90;;
18867;SDS011;9563;49.240;9.088;2023-02-08T01:25:17;17.13;;;7.43;;
18867;SDS011;9563;49.240;9.088;2023-02-08T01:27:44;16.37;;;7.77;;
18867;SDS011;9563;49.240;9.088;2023-02-08T01:30:11;15.73;;;7.87;;
18867;SDS011;9563;49.240;9.088;2023-02-08T01:32:40;17.50;;;7.97;;
18867;SDS011;9563;49.240;9.088;2023-02-08T01:35:07;21.40;;;8.30;;
18867;SDS011;9563;49.240;9.088;2023-02-08T01:37:34;19.93;;;8.40;;
18867;SDS011;9563;49.240;9.088;2023-02-08T01:40:01;17.90;;;8.40;;
18867;SDS011;9563;49.240;9.088;2023-02-08T01:42:27;19.53;;;8.67;;
18867;SDS011;9563;49.240;9.088;2023-02-08T01:47:55;19.13;;;7.80;;
18867;SDS011;9563;49.240;9.088;2023-02-08T01:50:30;21.50;;;8.50;;
18867;SDS011;9563;49.240;9.088;2023-02-08T01:53:01;16.17;;;7.53;;
18867;SDS011;9563;49.240;9.088;2023-02-08T01:55:30;16.77;;;7.93;;
18867;SDS011;9563;49.240;9.088;2023-02-08T01:57:59;17.00;;;7.37;;
18867;SDS011;9563;49.240;9.088;2023-02-08T02:00:28;17.03;;;8.00;;
18867;SDS011;9563;49.240;9.088;2023-02-08T02:02:58;17.63;;;7.53;;
18867;SDS011;9563;49.240;9.088;2023-02-08T02:05:28;16.37;;;7.87;;
18867;SDS011;9563;49.240;9.088;2023-02-08T02:07:59;16.23;;;7.80;;
18867;SDS011;9563;49.240;9.088;2023-02-08T02:10:27;14.13;;;7.13;;
18867;SDS011;9563;49.240;9.088;2023-02-08T02:12:57;18.70;;;8.20;;
18867;SDS011;9563;49.240;9.088;2023-02-08T02:15:28;16.80;;;7.53;;
18867;SDS011;9563;49.240;9.088;2023-02-08T02:17:55;18.73;;;7.93;;
18867;SDS011;9563;49.240;9.088;2023-02-08T02:20:25;15.23;;;7.67;;
18867;SDS011;9563;49.240;9.088;2023-02-08T02:26:22;20.47;;;8.17;;
18867;SDS011;9563;49.240;9.088;2023-02-08T02:29:24;17.87;;;8.20;;
18867;SDS011;9563;49.240;9.088;2023-02-08T02:32:23;17.73;;;7.53;;
18867;SDS011;9563;49.240;9.088;2023-02-08T02:35:02;17.90;;;8.97;;
18867;SDS011;9563;49.240;9.088;2023-02-08T02:37:37;16.43;;;7.43;;
18867;SDS011;9563;49.240;9.088;2023-02-08T02:40:14;13.80;;;7.83;;
18867;SDS011;9563;49.240;9.088;2023-02-08T02:42:52;16.90;;;7.83;;
18867;SDS011;9563;49.240;9.088;2023-02-08T02:45:45;15.77;;;7.30;;
18867;SDS011;9563;49.240;9.088;2023-02-08T02:48:21;17.63;;;7.67;;
18867;SDS011;9563;49.240;9.088;2023-02-08T02:50:55;21.03;;;8.50;;
18867;SDS011;9563;49.240;9.088;2023-02-08T02:53:27;18.90;;;8.53;;
18867;SDS011;9563;49.240;9.088;2023-02-08T02:56:01;19.07;;;7.67;;
18867;SDS011;9563;49.240;9.088;2023-02-08T02:58:32;18.30;;;8.23;;
18867;SDS011;9563;49.240;9.088;2023-02-08T03:00:59;18.47;;;9.03;;
18867;SDS011;9563;49.240;9.088;2023-02-08T03:03:29;20.63;;;8.80;;
18867;SDS011;9563;49.240;9.088;2023-02-08T03:05:59;16.27;;;7.67;;
18867;SDS011;9563;49.240;9.088;2023-02-08T03:08:40;18.40;;;8.57;;
18867;SDS011;9563;49.240;9.088;2023-02-08T03:11:25;18.50;;;8.03;;
18867;SDS011;9563;49.240;9.088;2023-02-08T03:14:06;16.40;;;8.03;;
18867;SDS011;9563;49.240;9.088;2023-02-08T03:16:52;20.70;;;8.47;;
18867;SDS011;9563;49.240;9.088;2023-02-08T03:19:37;17.67;;;8.13;;
18867;SDS011;9563;49.240;9.088;2023-02-08T03:22:10;16.90;;;8.13;;
18867;SDS011;9563;49.240;9.088;2023-02-08T03:24:43;15.70;;;7.93;;
18867;SDS011;9563;49.240;9.088;2023-02-08T03:27:18;16.17;;;8.40;;
18867;SDS011;9563;49.240;9.088;2023-02-08T03:29:52;19.70;;;8.47;;
18867;SDS011;9563;49.240;9.088;2023-02-08T03:32:24;16.17;;;7.60;;
18867;SDS011;9563;49.240;9.088;2023-02-08T03:35:00;17.43;;;8.53;;
18867;SDS011;9563;49.240;9.088;2023-02-08T03:37:31;19.07;;;8.30;;
18867;SDS011;9563;49.240;9.088;2023-02-08T03:40:03;18.03;;;8.67;;
18867;SDS011;9563;49.240;9.088;2023-02-08T03:42:35;18.27;;;8.30;;
18867;SDS011;9563;49.240;9.088;2023-02-08T03:45:04;17.87;;;7.60;;
18867;SDS011;9563;49.240;9.088;2023-02-08T03:47:36;16.70;;;8.23;;
18867;SDS011;9563;49.240;9.088;2023-02-08T03:50:09;20.57;;;9.03;;
18867;SDS011;9563;49.240;9.088;2023-02-08T03:52:38;14.37;;;7.43;;
18867;SDS011;9563;49.240;9.088;2023-02-08T03:55:06;17.67;;;7.73;;
18867;SDS011;9563;49.240;9.088;2023-02-08T03:57:37;20.97;;;8.23;;
18867;SDS011;9563;49.240;9.088;2023-02-08T04:00:10;24.73;;;9.13;;
18867;SDS011;9563;49.240;9.088;2023-02-08T04:02:41;22.00;;;8.47;;
18867;SDS011;9563;49.240;9.088;2023-02-08T04:05:14;18.80;;;8.27;;
18867;SDS011;9563;49.240;9.088;2023-02-08T04:07:41;20.20;;;8.57;;
18867;SDS011;9563;49.240;9.088;2023-02-08T04:10:08;16.83;;;7.90;;
18867;SDS011;9563;49.240;9.088;2023-02-08T04:12:35;19.93;;;9.43;;
18867;SDS011;9563;49.240;9.088;2023-02-08T04:15:02;15.23;;;8.47;;
18867;SDS011;9563;49.240;9.088;2023-02-08T04:17:30;22.03;;;9.63;;
18867;SDS011;9563;49.240;9.088;2023-02-08T04:19:57;20.30;;;9.83;;
18867;SDS011;9563;49.240;9.088;2023-02-08T04:22:26;20.03;;;9.40;;
18867;SDS011;9563;49.240;9.088;2023-02-08T04:24:52;17.80;;;8.47;;
18867;SDS011;9563;49.240;9.088;2023-02-08T04:27:19;19.23;;;8.93;;
18867;SDS011;9563;49.240;9.088;2023-02-08T04:29:46;19.47;;;9.30;;
18867;SDS011;9563;49.240;9.088;2023-02-08T04:32:13;20.93;;;9.77;;
18867;SDS011;9563;49.240;9.088;2023-02-08T04:34:40;19.13;;;9.30;;
18867;SDS011;9563;49.240;9.088;2023-02-08T04:37:07;18.53;;;8.93;;
18867;SDS011;9563;49.240;9.088;2023-02-08T04:39:36;16.73;;;9.00;;
18867;SDS011;9563;49.240;9.088;2023-02-08T04:42:03;21.57;;;9.17;;
18867;SDS011;9563;49.240;9.088;2023-02-08T04:44:30;18.67;;;9.07;;
18867;SDS011;9563;49.240;9.088;2023-02-08T04:46:57;16.97;;;8.07;;
18867;SDS011;9563;49.240;9.088;2023-02-08T04:49:24;17.77;;;8.17;;
18867;SDS011;9563;49.240;9.088;2023-02-08T04:51:51;20.63;;;9.13;;
18867;SDS011;9563;49.240;9.088;2023-02-08T04:54:18;21.50;;;8.50;;
18867;SDS011;9563;49.240;9.088;2023-02-08T04:56:46;20.80;;;9.50;;
18867;SDS011;9563;49.240;9.088;2023-02-08T04:59:14;20.93;;;9.80;;
18867;SDS011;9563;49.240;9.088;2023-02-08T05:01:41;19.30;;;9.13;;
18867;SDS011;9563;49.240;9.088;2023-02-08T05:04:08;20.10;;;9.20;;
18867;SDS011;9563;49.240;9.088;2023-02-08T05:06:34;20.90;;;9.10;;
18867;SDS011;9563;49.240;9.088;2023-02-08T05:09:01;20.83;;;10.67;;
18867;SDS011;9563;49.240;9.088;2023-02-08T05:11:29;18.37;;;9.27;;
18867;SDS011;9563;49.240;9.088;2023-02-08T05:13:57;24.10;;;9.40;;
18867;SDS011;9563;49.240;9.088;2023-02-08T05:16:24;21.40;;;9.63;;
18867;SDS011;9563;49.240;9.088;2023-02-08T05:18:51;17.03;;;8.93;;
18867;SDS011;9563;49.240;9.088;2023-02-08T05:21:18;21.50;;;9.87;;
18867;SDS011;9563;49.240;9.088;2023-02-08T05:23:47;22.73;;;10.50;;
18867;SDS011;9563;49.240;9.088;2023-02-08T05:26:14;20.97;;;8.93;;
18867;SDS011;9563;49.240;9.088;2023-02-08T05:28:42;20.10;;;9.37;;
18867;SDS011;9563;49.240;9.088;2023-02-08T05:31:25;21.97;;;9.00;;
18867;SDS011;9563;49.240;9.088;2023-02-08T05:33:52;25.10;;;9.87;;
18867;SDS011;9563;49.240;9.088;2023-02-08T05:36:19;19.03;;;9.53;;
18867;SDS011;9563;49.240;9.088;2023-02-08T05:38:47;20.93;;;10.20;;
18867;SDS011;9563;49.240;9.088;2023-02-08T05:41:14;24.43;;;9.70;;
18867;SDS011;9563;49.240;9.088;2023-02-08T05:43:42;18.07;;;8.93;;
18867;SDS011;9563;49.240;9.088;2023-02-08T05:46:09;24.17;;;10.40;;
18867;SDS011;9563;49.240;9.088;2023-02-08T05:48:38;23.07;;;9.77;;
18867;SDS011;9563;49.240;9.088;2023-02-08T05:51:05;25.57;;;9.57;;
18867;SDS011;9563;49.240;9.088;2023-02-08T05:53:31;20.87;;;9.83;;
18867;SDS011;9563;49.240;9.088;2023-02-08T05:55:58;22.47;;;9.00;;
18867;SDS011;9563;49.240;9.088;2023-02-08T05:58:25;21.77;;;10.67;;
18867;SDS011;9563;49.240;9.088;2023-02-08T06:00:52;23.13;;;10.23;;
18867;SDS011;9563;49.240;9.088;2023-02-08T06:03:19;22.13;;;9.87;;
18867;SDS011;9563;49.240;9.088;2023-02-08T06:05:47;23.43;;;10.50;;
18867;SDS011;9563;49.240;9.088;2023-02-08T06:08:14;23.33;;;10.23;;
18867;SDS011;9563;49.240;9.088;2023-02-08T06:10:41;25.73;;;11.03;;
18867;SDS011;9563;49.240;9.088;2023-02-08T06:13:09;23.60;;;10.47;;
18867;SDS011;9563;49.240;9.088;2023-02-08T06:15:36;22.83;;;9.67;;
18867;SDS011;9563;49.240;9.088;2023-02-08T06:18:03;23.77;;;9.67;;
18867;SDS011;9563;49.240;9.088;2023-02-08T06:20:30;20.97;;;10.00;;
18867;SDS011;9563;49.240;9.088;2023-02-08T06:22:58;20.30;;;10.07;;
18867;SDS011;9563;49.240;9.088;2023-02-08T06:25:25;22.63;;;9.33;;
18867;SDS011;9563;49.240;9.088;2023-02-08T06:27:52;29.97;;;11.80;;
18867;SDS011;9563;49.240;9.088;2023-02-08T06:30:19;25.00;;;11.10;;
18867;SDS011;9563;49.240;9.088;2023-02-08T06:32:46;19.03;;;10.10;;
18867;SDS011;9563;49.240;9.088;2023-02-08T06:35:12;25.73;;;10.23;;
18867;SDS011;9563;49.240;9.088;2023-02-08T06:37:39;21.47;;;9.67;;
18867;SDS011;9563;49.240;9.088;2023-02-08T06:40:08;21.07;;;9.37;;
18867;SDS011;9563;49.240;9.088;2023-02-08T06:42:35;22.90;;;10.03;;
18867;SDS011;9563;49.240;9.088;2023-02-08T06:45:02;18.30;;;9.70;;
18867;SDS011;9563;49.240;9.088;2023-02-08T06:47:32;23.77;;;9.53;;
18867;SDS011;9563;49.240;9.088;2023-02-08T06:49:59;23.87;;;10.63;;
18867;SDS011;9563;49.240;9.088;2023-02-08T06:52:25;27.10;;;10.40;;
18867;SDS011;9563;49.240;9.088;2023-02-08T06:54:52;27.30;;;10.90;;
18867;SDS011;9563;49.240;9.088;2023-02-08T06:57:21;21.60;;;10.40;;
18867;SDS011;9563;49.240;9.088;2023-02-08T06:59:47;23.43;;;10.67;;
18867;SDS011;9563;49.240;9.088;2023-02-08T07:02:16;27.27;;;11.33;;
18867;SDS011;9563;49.240;9.088;2023-02-08T07:04:44;23.63;;;10.53;;
18867;SDS011;9563;49.240;9.088;2023-02-08T07:07:12;24.57;;;10.10;;
18867;SDS011;9563;49.240;9.088;2023-02-08T07:09:40;24.00;;;10.87;;
18867;SDS011;9563;49.240;9.088;2023-02-08T07:12:07;20.90;;;10.10;;
18867;SDS011;9563;49.240;9.088;2023-02-08T07:14:37;19.93;;;9.33;;
18867;SDS011;9563;49.240;9.088;2023-02-08T07:17:05;20.70;;;10.63;;
18867;SDS011;9563;49.240;9.088;2023-02-08T07:19:33;24.33;;;10.13;;
18867;SDS011;9563;49.240;9.088;2023-02-08T07:21:59;26.57;;;10.67;;
18867;SDS011;9563;49.240;9.088;2023-02-08T07:24:32;21.63;;;10.40;;
18867;SDS011;9563;49.240;9.088;2023-02-08T07:26:59;25.70;;;11.37;;
18867;SDS011;9563;49.240;9.088;2023-02-08T07:29:27;29.93;;;10.87;;
18867;SDS011;9563;49.240;9.088;2023-02-08T07:31:55;25.13;;;10.93;;
18867;SDS011;9563;49.240;9.088;2023-02-08T07:34:23;26.50;;;11.07;;
18867;SDS011;9563;49.240;9.088;2023-02-08T07:36:49;27.33;;;10.77;;
18867;SDS011;9563;49.240;9.088;2023-02-08T07:39:16;25.50;;;10.20;;
18867;SDS011;9563;49.240;9.088;2023-02-08T07:41:43;19.50;;;9.23;;
18867;SDS011;9563;49.240;9.088;2023-02-08T07:44:10;20.30;;;10.17;;
18867;SDS011;9563;49.240;9.088;2023-02-08T07:46:37;25.83;;;10.03;;
18867;SDS011;9563;49.240;9.088;2023-02-08T07:49:06;23.83;;;10.07;;
18867;SDS011;9563;49.240;9.088;2023-02-08T07:51:34;28.30;;;10.67;;
18867;SDS011;9563;49.240;9.088;2023-02-08T07:54:01;23.43;;;10.93;;
18867;SDS011;9563;49.240;9.088;2023-02-08T07:56:28;19.33;;;9.37;;
18867;SDS011;9563;49.240;9.088;2023-02-08T07:58:55;23.80;;;10.53;;
18867;SDS011;9563;49.240;9.088;2023-02-08T08:01:22;19.33;;;10.07;;
18867;SDS011;9563;49.240;9.088;2023-02-08T08:03:49;24.13;;;11.30;;
18867;SDS011;9563;49.240;9.088;2023-02-08T08:06:18;24.27;;;11.00;;
18867;SDS011;9563;49.240;9.088;2023-02-08T08:08:47;21.67;;;9.90;;
18867;SDS011;9563;49.240;9.088;2023-02-08T08:11:14;20.03;;;9.70;;
18867;SDS011;9563;49.240;9.088;2023-02-08T08:13:43;22.70;;;10.53;;
18867;SDS011;9563;49.240;9.088;2023-02-08T08:16:10;23.93;;;10.33;;
18867;SDS011;9563;49.240;9.088;2023-02-08T08:18:37;21.73;;;10.50;;
18867;SDS011;9563;49.240;9.088;2023-02-08T08:21:04;22.83;;;11.17;;
18867;SDS011;9563;49.240;9.088;2023-02-08T08:23:33;21.50;;;10.07;;
18867;SDS011;9563;49.240;9.088;2023-02-08T08:26:05;19.13;;;9.97;;
18867;SDS011;9563;49.240;9.088;2023-02-08T08:28:33;22.30;;;10.57;;
18867;SDS011;9563;49.240;9.088;2023-02-08T08:31:00;18.07;;;10.23;;
18867;SDS011;9563;49.240;9.088;2023-02-08T08:33:26;21.33;;;11.07;;
18867;SDS011;9563;49.240;9.088;2023-02-08T08:35:53;24.37;;;11.07;;
18867;SDS011;9563;49.240;9.088;2023-02-08T08:38:20;22.67;;;11.03;;
18867;SDS011;9563;49.240;9.088;2023-02-08T08:40:49;25.03;;;11.20;;
18867;SDS011;9563;49.240;9.088;2023-02-08T08:43:15;25.10;;;11.17;;
18867;SDS011;9563;49.240;9.088;2023-02-08T08:45:43;20.90;;;10.37;;
18867;SDS011;9563;49.240;9.088;2023-02-08T08:48:10;19.90;;;10.43;;
18867;SDS011;9563;49.240;9.088;2023-02-08T08:50:37;30.17;;;12.37;;
18867;SDS011;9563;49.240;9.088;2023-02-08T08:53:04;24.17;;;11.07;;
18867;SDS011;9563;49.240;9.088;2023-02-08T08:55:31;24.17;;;10.60;;
18867;SDS011;9563;49.240;9.088;2023-02-08T08:57:59;27.33;;;12.53;;
18867;SDS011;9563;49.240;9.088;2023-02-08T09:00:26;21.43;;;10.93;;
18867;SDS011;9563;49.240;9.088;2023-02-08T09:02:53;21.80;;;10.80;;
18867;SDS011;9563;49.240;9.088;2023-02-08T09:05:20;21.97;;;10.67;;
18867;SDS011;9563;49.240;9.088;2023-02-08T09:07:46;22.73;;;11.33;;
18867;SDS011;9563;49.240;9.088;2023-02-08T09:10:13;23.27;;;10.80;;
18867;SDS011;9563;49.240;9.088;2023-02-08T09:12:40;19.87;;;9.73;;
18867;SDS011;9563;49.240;9.088;2023-02-08T09:15:09;19.33;;;10.63;;
18867;SDS011;9563;49.240;9.088;2023-02-08T09:17:37;23.17;;;11.90;;
18867;SDS011;9563;49.240;9.088;2023-02-08T09:20:04;21.40;;;10.60;;
18867;SDS011;9563;49.240;9.088;2023-02-08T09:22:31;25.90;;;12.13;;
18867;SDS011;9563;49.240;9.088;2023-02-08T09:24:58;22.20;;;9.97;;
18867;SDS011;9563;49.240;9.088;2023-02-08T09:27:26;22.63;;;11.33;;
18867;SDS011;9563;49.240;9.088;2023-02-08T09:29:52;26.17;;;11.93;;
18867;SDS011;9563;49.240;9.088;2023-02-08T09:32:21;22.00;;;10.90;;
18867;SDS011;9563;49.240;9.088;2023-02-08T09:34:48;25.57;;;11.23;;
18867;SDS011;9563;49.240;9.088;2023-02-08T09:37:15;24.77;;;12.20;;
18867;SDS011;9563;49.240;9.088;2023-02-08T09:39:42;23.30;;;10.87;;
18867;SDS011;9563;49.240;9.088;2023-02-08T09:42:14;27.73;;;11.83;;
18867;SDS011;9563;49.240;9.088;2023-02-08T09:44:54;23.83;;;11.40;;
18867;SDS011;9563;49.240;9.088;2023-02-08T09:47:36;22.67;;;10.77;;
18867;SDS011;9563;49.240;9.088;2023-02-08T09:50:09;23.83;;;10.63;;
18867;SDS011;9563;49.240;9.088;2023-02-08T09:52:40;25.20;;;11.83;;
18867;SDS011;9563;49.240;9.088;2023-02-08T09:55:13;20.43;;;11.17;;
18867;SDS011;9563;49.240;9.088;2023-02-08T09:57:48;20.90;;;11.17;;
18867;SDS011;9563;49.240;9.088;2023-02-08T10:00:20;24.13;;;11.57;;
18867;SDS011;9563;49.240;9.088;2023-02-08T10:02:54;19.87;;;11.17;;
18867;SDS011;9563;49.240;9.088;2023-02-08T10:05:24;22.43;;;10.87;;
18867;SDS011;9563;49.240;9.088;2023-02-08T10:07:52;23.80;;;11.40;;
18867;SDS011;9563;49.240;9.088;2023-02-08T10:10:24;23.50;;;10.70;;
18867;SDS011;9563;49.240;9.088;2023-02-08T10:13:06;22.40;;;11.47;;
18867;SDS011;9563;49.240;9.088;2023-02-08T10:15:45;19.93;;;10.40;;
18867;SDS011;9563;49.240;9.088;2023-02-08T10:21:19;22.27;;;10.87;;
18867;SDS011;9563;49.240;9.088;2023-02-08T10:24:08;18.07;;;10.27;;
18867;SDS011;9563;49.240;9.088;2023-02-08T10:26:53;20.17;;;10.50;;
18867;SDS011;9563;49.240;9.088;2023-02-08T10:29:38;19.93;;;10.53;;
18867;SDS011;9563;49.240;9.088;2023-02-08T10:32:15;24.00;;;11.17;;
18867;SDS011;9563;49.240;9.088;2023-02-08T10:34:59;23.27;;;11.13;;
18867;SDS011;9563;49.240;9.088;2023-02-08T10:37:31;21.30;;;11.10;;
18867;SDS011;9563;49.240;9.088;2023-02-08T10:40:06;23.80;;;11.43;;
18867;SDS011;9563;49.240;9.088;2023-02-08T10:42:44;20.37;;;10.63;;
18867;SDS011;9563;49.240;9.088;2023-02-08T10:45:17;19.63;;;11.03;;
18867;SDS011;9563;49.240;9.088;2023-02-08T10:47:50;20.40;;;11.00;;
18867;SDS011;9563;49.240;9.088;2023-02-08T10:50:20;18.60;;;10.03;;
18867;SDS011;9563;49.240;9.088;2023-02-08T10:53:14;22.80;;;10.87;;
18867;SDS011;9563;49.240;9.088;2023-02-08T10:55:45;21.23;;;10.87;;
18867;SDS011;9563;49.240;9.088;2023-02-08T10:58:15;22.63;;;12.53;;
18867;SDS011;9563;49.240;9.088;2023-02-08T11:00:44;17.40;;;9.70;;
18867;SDS011;9563;49.240;9.088;2023-02-08T11:03:13;23.10;;;11.80;;
18867;SDS011;9563;49.240;9.088;2023-02-08T11:05:43;19.73;;;10.20;;
18867;SDS011;9563;49.240;9.088;2023-02-08T11:08:11;24.77;;;10.90;;
18867;SDS011;9563;49.240;9.088;2023-02-08T11:10:42;22.90;;;9.90;;
18867;SDS011;9563;49.240;9.088;2023-02-08T11:13:16;19.23;;;8.90;;
18867;SDS011;9563;49.240;9.088;2023-02-08T11:15:45;16.87;;;9.13;;
18867;SDS011;9563;49.240;9.088;2023-02-08T11:18:18;18.07;;;9.33;;
18867;SDS011;9563;49.240;9.088;2023-02-08T11:20:48;16.90;;;8.97;;
18867;SDS011;9563;49.240;9.088;2023-02-08T11:23:19;19.63;;;9.40;;
18867;SDS011;9563;49.240;9.088;2023-02-08T11:25:50;18.50;;;8.77;;
18867;SDS011;9563;49.240;9.088;2023-02-08T11:28:21;15.60;;;8.33;;
18867;SDS011;9563;49.240;9.088;2023-02-08T11:30:56;17.53;;;8.37;;
18867;SDS011;9563;49.240;9.088;2023-02-08T11:33:26;17.63;;;8.37;;
18867;SDS011;9563;49.240;9.088;2023-02-08T11:35:55;16.47;;;8.17;;
18867;SDS011;9563;49.240;9.088;2023-02-08T11:38:24;16.93;;;7.97;;
18867;SDS011;9563;49.240;9.088;2023-02-08T11:40:54;20.63;;;8.03;;
18867;SDS011;9563;49.240;9.088;2023-02-08T11:43:24;16.37;;;8.30;;
18867;SDS011;9563;49.240;9.088;2023-02-08T11:45:52;15.93;;;7.97;;
18867;SDS011;9563;49.240;9.088;2023-02-08T11:48:22;14.33;;;7.93;;
18867;SDS011;9563;49.240;9.088;2023-02-08T11:50:55;18.80;;;8.20;;
18867;SDS011;9563;49.240;9.088;2023-02-08T11:53:28;15.23;;;7.90;;
18867;SDS011;9563;49.240;9.088;2023-02-08T11:56:03;17.87;;;7.63;;
18867;SDS011;9563;49.240;9.088;2023-02-08T11:58:32;15.93;;;7.97;;
18867;SDS011;9563;49.240;9.088;2023-02-08T12:01:01;14.93;;;7.27;;
18867;SDS011;9563;49.240;9.088;2023-02-08T12:03:30;15.53;;;8.27;;
18867;SDS011;9563;49.240;9.088;2023-02-08T12:06:08;15.37;;;7.57;;
18867;SDS011;9563;49.240;9.088;2023-02-08T12:08:51;17.67;;;7.13;;
18867;SDS011;9563;49.240;9.088;2023-02-08T12:11:26;12.37;;;6.97;;
18867;SDS011;9563;49.240;9.088;2023-02-08T12:14:07;14.67;;;7.57;;
18867;SDS011;9563;49.240;9.088;2023-02-08T12:20:05;14.20;;;7.23;;
18867;SDS011;9563;49.240;9.088;2023-02-08T12:22:52;15.50;;;7.50;;
18867;SDS011;9563;49.240;9.088;2023-02-08T12:25:26;16.37;;;6.73;;
18867;SDS011;9563;49.240;9.088;2023-02-08T12:28:03;15.47;;;6.23;;
18867;SDS011;9563;49.240;9.088;2023-02-08T12:30:38;16.43;;;6.90;;
18867;SDS011;9563;49.240;9.088;2023-02-08T12:33:22;10.93;;;6.17;;
18867;SDS011;9563;49.240;9.088;2023-02-08T12:36:10;12.07;;;6.27;;
18867;SDS011;9563;49.240;9.088;2023-02-08T12:39:00;12.80;;;6.43;;
18867;SDS011;9563;49.240;9.088;2023-02-08T12:42:00;11.17;;;5.93;;
18867;SDS011;9563;49.240;9.088;2023-02-08T12:47:45;12.57;;;6.13;;
18867;SDS011;9563;49.240;9.088;2023-02-08T12:50:24;14.30;;;6.60;;
18867;SDS011;9563;49.240;9.088;2023-02-08T12:52:58;12.10;;;5.70;;
18867;SDS011;9563;49.240;9.088;2023-02-08T12:55:28;12.50;;;6.10;;
18867;SDS011;9563;49.240;9.088;2023-02-08T12:58:01;11.73;;;5.97;;
18867;SDS011;9563;49.240;9.088;2023-02-08T13:00:35;13.40;;;6.33;;
18867;SDS011;9563;49.240;9.088;2023-02-08T13:03:07;12.77;;;5.53;;
18867;SDS011;9563;49.240;9.088;2023-02-08T13:05:43;15.20;;;5.77;;
18867;SDS011;9563;49.240;9.088;2023-02-08T13:08:15;10.40;;;5.50;;
18867;SDS011;9563;49.240;9.088;2023-02-08T13:10:48;9.70;;;5.37;;
18867;SDS011;9563;49.240;9.088;2023-02-08T13:13:22;10.10;;;5.37;;
18867;SDS011;9563;49.240;9.088;2023-02-08T13:15:56;9.63;;;5.57;;
18867;SDS011;9563;49.240;9.088;2023-02-08T13:18:27;11.70;;;6.10;;
18867;SDS011;9563;49.240;9.088;2023-02-08T13:20:58;10.10;;;5.53;;
18867;SDS011;9563;49.240;9.088;2023-02-08T13:23:28;14.77;;;6.13;;
18867;SDS011;9563;49.240;9.088;2023-02-08T13:26:01;12.67;;;6.40;;
18867;SDS011;9563;49.240;9.088;2023-02-08T13:28:33;12.47;;;6.63;;
18867;SDS011;9563;49.240;9.088;2023-02-08T13:31:02;11.70;;;5.50;;
18867;SDS011;9563;49.240;9.088;2023-02-08T13:33:34;10.10;;;5.43;;
18867;SDS011;9563;49.240;9.088;2023-02-08T13:36:06;10.48;;;5.65;;
18867;SDS011;9563;49.240;9.088;2023-02-08T13:38:50;14.17;;;6.90;;
18867;SDS011;9563;49.240;9.088;2023-02-08T13:41:32;9.93;;;5.63;;
18867;SDS011;9563;49.240;9.088;2023-02-08T13:44:01;11.05;;;6.45;;
18867;SDS011;9563;49.240;9.088;2023-02-08T13:46:36;10.57;;;5.85;;
18867;SDS011;9563;49.240;9.088;2023-02-08T13:52:07;9.48;;;5.53;;
18867;SDS011;9563;49.240;9.088;2023-02-08T13:54:35;10.98;;;6.32;;
18867;SDS011;9563;49.240;9.088;2023-02-08T13:57:02;11.88;;;6.80;;
18867;SDS011;9563;49.240;9.088;2023-02-08T13:59:32;11.47;;;6.17;;
18867;SDS011;9563;49.240;9.088;2023-02-08T14:07:59;12.30;;;5.88;;
18867;SDS011;9563;49.240;9.088;2023-02-08T14:10:31;10.30;;;5.67;;
18867;SDS011;9563;49.240;9.088;2023-02-08T14:13:02;14.30;;;6.30;;
18867;SDS011;9563;49.240;9.088;2023-02-08T14:15:39;10.93;;;5.78;;
18867;SDS011;9563;49.240;9.088;2023-02-08T14:21:01;9.93;;;5.50;;
18867;SDS011;9563;49.240;9.088;2023-02-08T14:23:30;8.40;;;4.80;;
18867;SDS011;9563;49.240;9.088;2023-02-08T14:26:02;12.03;;;5.63;;
18867;SDS011;9563;49.240;9.088;2023-02-08T14:28:33;12.27;;;6.00;;
18867;SDS011;9563;49.240;9.088;2023-02-08T14:31:04;10.57;;;5.63;;
18867;SDS011;9563;49.240;9.088;2023-02-08T14:33:50;13.50;;;5.23;;
18867;SDS011;9563;49.240;9.088;2023-02-08T14:36:25;12.00;;;6.17;;
18867;SDS011;9563;49.240;9.088;2023-02-08T14:41:51;15.57;;;6.10;;
18867;SDS011;9563;49.240;9.088;2023-02-08T14:50:41;9.90;;;5.23;;
18867;SDS011;9563;49.240;9.088;2023-02-08T14:53:18;10.70;;;5.67;;
18867;SDS011;9563;49.240;9.088;2023-02-08T14:56:03;16.47;;;6.23;;
18867;SDS011;9563;49.240;9.088;2023-02-08T14:58:39;11.37;;;5.93;;
18867;SDS011;9563;49.240;9.088;2023-02-08T15:01:11;15.97;;;6.93;;
18867;SDS011;9563;49.240;9.088;2023-02-08T15:03:40;16.30;;;6.83;;
18867;SDS011;9563;49.240;9.088;2023-02-08T15:06:33;15.27;;;7.37;;
18867;SDS011;9563;49.240;9.088;2023-02-08T15:09:21;14.27;;;7.43;;
18867;SDS011;9563;49.240;9.088;2023-02-08T15:11:52;15.40;;;7.67;;
18867;SDS011;9563;49.240;9.088;2023-02-08T15:14:25;14.87;;;7.43;;
18867;SDS011;9563;49.240;9.088;2023-02-08T15:16:52;14.73;;;7.97;;
18867;SDS011;9563;49.240;9.088;2023-02-08T15:19:22;14.33;;;7.27;;
18867;SDS011;9563;49.240;9.088;2023-02-08T15:21:53;19.13;;;7.90;;
18867;SDS011;9563;49.240;9.088;2023-02-08T15:24:20;16.33;;;7.47;;
18867;SDS011;9563;49.240;9.088;2023-02-08T15:26:53;17.37;;;8.33;;
18867;SDS011;9563;49.240;9.088;2023-02-08T15:29:23;15.60;;;7.47;;
18867;SDS011;9563;49.240;9.088;2023-02-08T15:31:51;16.83;;;8.13;;
18867;SDS011;9563;49.240;9.088;2023-02-08T15:34:19;18.23;;;8.07;;
18867;SDS011;9563;49.240;9.088;2023-02-08T15:36:50;18.53;;;8.13;;
18867;SDS011;9563;49.240;9.088;2023-02-08T15:39:24;16.67;;;8.40;;
18867;SDS011;9563;49.240;9.088;2023-02-08T15:41:57;19.37;;;8.43;;